createdAt,value
2022-07-25T00:00:01.898Z,55.02
2022-07-25T00:02:53.515Z,55.04
2022-07-25T00:05:25.744Z,55.18
2022-07-25T00:07:57.361Z,55.26
2022-07-25T00:10:29.089Z,55.33
2022-07-25T00:13:00.793Z,55.44
2022-07-25T00:15:32.582Z,55.33
2022-07-25T00:18:04.288Z,55.01
2022-07-25T00:20:35.961Z,54.84
2022-07-25T00:23:07.729Z,54.49
2022-07-25T00:25:39.974Z,54.44
2022-07-25T00:28:11.565Z,54.78
2022-07-25T00:30:48.107Z,54.46
2022-07-25T00:33:19.917Z,54.42
2022-07-25T00:35:51.599Z,54.93
2022-07-25T00:38:23.280Z,55.15
2022-07-25T00:40:55.925Z,54.96
2022-07-25T00:43:27.515Z,55.16
2022-07-25T00:45:59.802Z,55.10
2022-07-25T00:48:32.686Z,55.27
2022-07-25T00:51:04.367Z,55.31
2022-07-25T00:53:36.258Z,55.62
2022-07-25T00:56:09.276Z,55.96
2022-07-25T00:58:40.934Z,55.71
2022-07-25T01:01:12.648Z,55.76
2022-07-25T01:03:44.463Z,56.06
2022-07-25T01:06:16.108Z,56.16
2022-07-25T01:08:48.179Z,56.06
2022-07-25T01:11:20.509Z,55.93
2022-07-25T01:13:52.460Z,56.04
2022-07-25T01:16:24.158Z,56.19
2022-07-25T01:18:55.817Z,55.89
2022-07-25T01:21:28.119Z,55.99
2022-07-25T01:23:59.773Z,55.85
2022-07-25T01:26:32.060Z,55.91
2022-07-25T01:29:03.759Z,55.86
2022-07-25T01:31:35.615Z,55.76
2022-07-25T01:34:07.701Z,55.87
2022-07-25T01:36:39.718Z,56.02
2022-07-25T01:39:11.333Z,56.13
2022-07-25T01:41:42.883Z,56.11
2022-07-25T01:44:14.579Z,56.55
2022-07-25T01:46:46.297Z,56.17
2022-07-25T01:49:18.100Z,56.48
2022-07-25T01:51:49.687Z,56.83
2022-07-25T01:54:21.266Z,56.44
2022-07-25T01:56:53.669Z,56.62
2022-07-25T01:59:25.539Z,56.70
2022-07-25T02:01:57.302Z,56.79
2022-07-25T02:04:28.969Z,56.87
2022-07-25T02:07:00.586Z,57.21
2022-07-25T02:09:32.429Z,57.46
2022-07-25T02:12:04.022Z,57.20
2022-07-25T02:14:35.791Z,57.11
2022-07-25T02:17:07.796Z,56.94
2022-07-25T02:19:39.829Z,56.81
2022-07-25T02:22:11.766Z,56.59
2022-07-25T02:24:43.754Z,56.70
2022-07-25T02:27:15.438Z,56.49
2022-07-25T02:29:47.082Z,56.28
2022-07-25T02:32:19.207Z,56.45
2022-07-25T02:34:50.768Z,56.45
2022-07-25T02:37:22.452Z,56.24
2022-07-25T02:39:53.983Z,56.16
2022-07-25T02:42:25.918Z,56.13
2022-07-25T02:44:57.472Z,56.10
2022-07-25T02:47:29.178Z,56.03
2022-07-25T02:50:00.782Z,55.91
2022-07-25T02:52:32.389Z,55.81
2022-07-25T02:55:09.531Z,55.74
2022-07-25T02:57:41.912Z,55.58
2022-07-25T03:00:16.588Z,55.66
2022-07-25T03:02:49.765Z,55.74
2022-07-25T03:05:21.340Z,55.70
2022-07-25T03:07:53.224Z,55.74
2022-07-25T03:10:24.809Z,55.80
2022-07-25T03:12:56.569Z,55.87
2022-07-25T03:15:28.385Z,55.80
2022-07-25T03:18:00.137Z,56.18
2022-07-25T03:20:31.712Z,56.48
2022-07-25T03:23:03.761Z,56.94
2022-07-25T03:25:35.477Z,57.17
2022-07-25T03:28:07.382Z,57.55
2022-07-25T03:30:38.954Z,57.49
2022-07-25T03:33:10.665Z,57.25
2022-07-25T03:35:42.603Z,57.57
2022-07-25T03:38:14.270Z,57.29
2022-07-25T03:40:46.138Z,57.38
2022-07-25T03:43:18.129Z,56.98
2022-07-25T03:45:49.758Z,56.89
2022-07-25T03:48:21.531Z,56.55
2022-07-25T03:50:53.227Z,56.43
2022-07-25T03:53:24.975Z,55.96
2022-07-25T03:55:56.608Z,55.63
2022-07-25T03:58:28.324Z,55.53
2022-07-25T04:00:59.931Z,55.39
2022-07-25T04:03:32.275Z,55.06
2022-07-25T04:06:04.040Z,54.70
2022-07-25T04:08:35.741Z,54.42
2022-07-25T04:11:07.627Z,54.26
2022-07-25T04:13:39.280Z,53.85
2022-07-25T04:16:16.861Z,52.66
2022-07-25T04:18:54.704Z,50.22
2022-07-25T04:21:27.960Z,48.06
2022-07-25T04:23:59.684Z,45.86
2022-07-25T04:26:31.443Z,43.92
2022-07-25T04:29:04.124Z,42.35
2022-07-25T04:31:35.898Z,41.57
2022-07-25T04:34:08.242Z,40.63
2022-07-25T04:36:40.058Z,39.88
2022-07-25T04:39:11.656Z,38.74
2022-07-25T04:41:43.190Z,37.25
2022-07-25T04:44:14.804Z,37.06
2022-07-25T04:46:46.444Z,35.74
2022-07-25T04:49:18.332Z,33.41
2022-07-25T04:51:50.109Z,32.34
2022-07-25T04:54:21.737Z,31.78
2022-07-25T04:56:53.360Z,30.27
2022-07-25T04:59:25.053Z,30.15
2022-07-25T05:01:56.780Z,30.10
2022-07-25T05:04:28.890Z,28.26
2022-07-25T05:07:00.557Z,28.79
2022-07-25T05:09:32.194Z,28.48
2022-07-25T05:12:03.935Z,27.57
2022-07-25T05:14:35.811Z,26.96
2022-07-25T05:17:07.602Z,25.88
2022-07-25T05:19:39.577Z,25.93
2022-07-25T05:22:11.293Z,25.10
2022-07-25T05:24:43.205Z,25.09
2022-07-25T05:27:14.843Z,24.55
2022-07-25T05:29:46.522Z,24.11
2022-07-25T05:32:18.120Z,23.91
2022-07-25T05:34:49.810Z,24.14
2022-07-25T05:37:22.666Z,23.97
2022-07-25T05:39:54.351Z,24.27
2022-07-25T05:42:25.942Z,25.01
2022-07-25T05:44:57.733Z,25.34
2022-07-25T05:47:29.398Z,25.94
2022-07-25T05:50:01.708Z,25.95
2022-07-25T05:52:33.315Z,26.98
2022-07-25T05:55:05.255Z,27.59
2022-07-25T05:57:37.731Z,28.00
2022-07-25T06:00:13.372Z,28.72
2022-07-25T06:02:45.140Z,29.14
2022-07-25T06:05:16.816Z,29.97
2022-07-25T06:07:48.641Z,30.46
2022-07-25T06:10:20.603Z,31.18
2022-07-25T06:12:52.442Z,31.48
2022-07-25T06:15:26.823Z,32.02
2022-07-25T06:17:59.306Z,32.48
2022-07-25T06:20:31.086Z,32.90
2022-07-25T06:23:03.916Z,33.10
2022-07-25T06:25:35.694Z,33.39
2022-07-25T06:28:07.851Z,33.62
2022-07-25T06:30:43.305Z,33.79
2022-07-25T06:33:15.152Z,33.92
2022-07-25T06:35:46.773Z,33.98
2022-07-25T06:38:18.416Z,34.14
2022-07-25T06:40:50.081Z,34.16
2022-07-25T06:43:21.786Z,34.21
2022-07-25T06:45:54.138Z,34.08
2022-07-25T06:48:25.945Z,34.39
2022-07-25T06:50:57.763Z,34.38
2022-07-25T06:53:29.514Z,34.26
2022-07-25T06:56:01.277Z,34.21
2022-07-25T06:58:33.152Z,34.27
2022-07-25T07:01:04.806Z,34.48
2022-07-25T07:03:38.619Z,34.57
2022-07-25T07:06:11.033Z,34.81
2022-07-25T07:08:42.647Z,35.05
2022-07-25T07:11:15.469Z,35.25
2022-07-25T07:13:47.094Z,35.05
2022-07-25T07:16:19.298Z,34.30
2022-07-25T07:18:50.898Z,34.30
2022-07-25T07:21:22.651Z,34.46
2022-07-25T07:23:54.995Z,34.43
2022-07-25T07:26:28.630Z,33.98
2022-07-25T07:29:00.399Z,33.84
2022-07-25T07:31:32.325Z,33.98
2022-07-25T07:34:04.031Z,33.98
2022-07-25T07:36:35.804Z,33.55
2022-07-25T07:39:08.421Z,33.45
2022-07-25T07:41:40.679Z,33.58
2022-07-25T07:44:12.234Z,33.74
2022-07-25T07:46:43.909Z,33.59
2022-07-25T07:49:15.600Z,33.49
2022-07-25T07:51:47.341Z,32.80
2022-07-25T07:54:36.578Z,32.67
2022-07-25T07:57:09.829Z,32.25
2022-07-25T07:59:41.372Z,32.20
2022-07-25T08:02:12.995Z,32.34
2022-07-25T08:04:44.670Z,31.92
2022-07-25T08:07:16.315Z,31.85
2022-07-25T08:09:47.868Z,31.90
2022-07-25T08:12:19.499Z,31.62
2022-07-25T08:14:51.175Z,31.59
2022-07-25T08:17:28.348Z,30.96
2022-07-25T08:20:20.676Z,30.71
2022-07-25T08:22:56.290Z,31.39
2022-07-25T08:25:28.598Z,31.03
2022-07-25T08:28:00.729Z,31.25
2022-07-25T08:30:32.716Z,29.83
2022-07-25T08:33:06.458Z,29.56
2022-07-25T08:35:38.713Z,29.78
2022-07-25T08:38:11.743Z,29.18
2022-07-25T08:40:43.562Z,29.64
2022-07-25T08:43:16.651Z,28.68
2022-07-25T08:45:49.586Z,28.98
2022-07-25T08:48:23.513Z,28.61
2022-07-25T08:50:58.242Z,28.42
2022-07-25T08:53:33.606Z,28.36
2022-07-25T08:56:13.280Z,28.19
2022-07-25T08:58:46.505Z,28.61
2022-07-25T09:01:18.284Z,28.21
2022-07-25T09:03:50.056Z,28.00
2022-07-25T09:06:23.499Z,28.02
2022-07-25T09:08:57.059Z,28.34
2022-07-25T09:11:34.311Z,28.35
2022-07-25T09:14:08.626Z,27.80
2022-07-25T09:16:44.424Z,27.39
2022-07-25T09:19:18.718Z,27.79
2022-07-25T09:22:01.710Z,27.41
2022-07-25T09:24:34.258Z,27.19
2022-07-25T09:27:12.861Z,27.43
2022-07-25T09:29:44.842Z,26.99
2022-07-25T09:32:24.679Z,26.33
2022-07-25T09:34:56.288Z,26.54
2022-07-25T09:37:30.161Z,26.67
2022-07-25T09:40:01.786Z,26.76
2022-07-25T09:42:36.340Z,27.02
2022-07-25T09:45:12.890Z,26.48
2022-07-25T09:47:57.349Z,26.42
2022-07-25T09:50:31.100Z,26.36
2022-07-25T09:53:03.997Z,26.14
2022-07-25T09:55:35.819Z,26.55
2022-07-25T09:58:07.380Z,26.50
2022-07-25T10:00:42.007Z,25.97
2022-07-25T10:03:23.894Z,25.95
2022-07-25T10:06:10.018Z,25.86
2022-07-25T10:08:43.055Z,25.80
2022-07-25T10:11:25.716Z,25.48
2022-07-25T10:13:58.120Z,25.64
2022-07-25T10:16:30.136Z,25.39
2022-07-25T10:19:01.728Z,25.62
2022-07-25T10:21:33.368Z,25.31
2022-07-25T10:24:07.182Z,25.48
2022-07-25T10:26:40.587Z,25.08
2022-07-25T10:29:13.985Z,24.90
2022-07-25T10:31:51.246Z,25.05
2022-07-25T10:34:33.216Z,24.67
2022-07-25T10:37:14.228Z,24.92
2022-07-25T10:39:47.008Z,24.64
2022-07-25T10:42:21.732Z,25.01
2022-07-25T10:44:57.534Z,24.93
2022-07-25T10:47:30.804Z,24.64
2022-07-25T10:50:22.024Z,24.71
2022-07-25T10:53:07.905Z,24.79
2022-07-25T10:55:39.610Z,25.07
2022-07-25T10:58:18.658Z,25.13
2022-07-25T11:00:51.421Z,25.03
2022-07-25T11:03:24.089Z,24.55
2022-07-25T11:05:56.240Z,24.24
2022-07-25T11:08:35.915Z,24.02
2022-07-25T11:11:07.837Z,23.77
2022-07-25T11:13:44.498Z,23.63
2022-07-25T11:16:16.240Z,22.99
2022-07-25T11:18:49.603Z,23.23
2022-07-25T11:21:21.671Z,23.66
2022-07-25T11:23:54.668Z,23.43
2022-07-25T11:26:26.328Z,23.45
2022-07-25T11:28:58.036Z,23.74
2022-07-25T11:31:29.983Z,23.34
2022-07-25T11:34:01.806Z,23.35
2022-07-25T11:36:33.594Z,23.15
2022-07-25T11:39:05.758Z,22.67
2022-07-25T11:41:37.575Z,23.11
2022-07-25T11:44:09.355Z,22.82
2022-07-25T11:46:46.537Z,22.82
2022-07-25T11:49:18.230Z,22.54
2022-07-25T11:51:49.970Z,22.00
2022-07-25T11:54:21.718Z,21.96
2022-07-25T11:56:53.413Z,22.52
2022-07-25T11:59:26.249Z,22.44
2022-07-25T12:01:57.974Z,22.39
2022-07-25T12:04:29.639Z,22.16
2022-07-25T12:07:07.185Z,21.98
2022-07-25T12:09:38.909Z,21.92
2022-07-25T12:12:12.500Z,21.93
2022-07-25T12:14:46.567Z,21.98
2022-07-25T12:17:26.666Z,21.75
2022-07-25T12:19:58.455Z,21.48
2022-07-25T12:22:30.072Z,21.91
2022-07-25T12:25:01.766Z,21.96
2022-07-25T12:27:38.377Z,21.74
2022-07-25T12:30:18.812Z,21.78
2022-07-25T12:32:50.684Z,21.93
2022-07-25T12:35:22.392Z,21.14
2022-07-25T12:37:54.461Z,21.36
2022-07-25T12:40:27.011Z,21.60
2022-07-25T12:42:59.074Z,21.13
2022-07-25T12:45:31.115Z,21.41
2022-07-25T12:48:02.837Z,21.22
2022-07-25T12:50:34.536Z,21.12
2022-07-25T12:53:06.478Z,20.98
2022-07-25T12:55:38.295Z,21.12
2022-07-25T12:58:10.287Z,21.47
2022-07-25T13:00:42.510Z,21.08
2022-07-25T13:03:16.169Z,21.20
2022-07-25T13:05:47.749Z,21.47
2022-07-25T13:08:19.507Z,20.99
2022-07-25T13:10:51.163Z,20.90
2022-07-25T13:13:22.765Z,21.11
2022-07-25T13:15:54.504Z,20.95
2022-07-25T13:18:26.097Z,20.73
2022-07-25T13:20:57.768Z,20.83
2022-07-25T13:23:29.478Z,20.87
2022-07-25T13:26:01.493Z,20.86
2022-07-25T13:28:33.042Z,20.66
2022-07-25T13:31:07.068Z,20.75
2022-07-25T13:33:38.805Z,20.79
2022-07-25T13:36:11.381Z,20.44
2022-07-25T13:38:43.472Z,20.47
2022-07-25T13:41:15.678Z,20.78
2022-07-25T13:43:47.848Z,20.56
2022-07-25T13:46:20.095Z,20.79
2022-07-25T13:48:52.272Z,21.14
2022-07-25T13:51:23.969Z,20.79
2022-07-25T13:53:55.778Z,20.23
2022-07-25T13:56:29.426Z,20.53
2022-07-25T13:59:01.368Z,20.61
2022-07-25T14:01:33.244Z,20.56
2022-07-25T14:04:04.912Z,20.37
2022-07-25T14:06:36.647Z,20.15
2022-07-25T14:09:08.971Z,20.27
2022-07-25T14:11:41.406Z,20.16
2022-07-25T14:14:12.943Z,20.54
2022-07-25T14:16:44.763Z,20.51
2022-07-25T14:19:16.446Z,20.26
2022-07-25T14:21:48.191Z,20.18
2022-07-25T14:24:19.986Z,20.34
2022-07-25T14:26:51.793Z,20.31
2022-07-25T14:29:27.263Z,20.71
2022-07-25T14:32:02.074Z,20.82
2022-07-25T14:34:33.703Z,20.53
2022-07-25T14:37:06.088Z,20.42
2022-07-25T14:39:37.840Z,20.23
2022-07-25T14:42:11.365Z,20.29
2022-07-25T14:44:43.074Z,20.23
2022-07-25T14:47:14.936Z,20.21
2022-07-25T14:49:46.825Z,20.64
2022-07-25T14:52:18.920Z,20.29
2022-07-25T14:54:50.648Z,20.02
2022-07-25T14:57:22.333Z,20.29
2022-07-25T14:59:54.049Z,20.39
2022-07-25T15:02:25.833Z,20.71
2022-07-25T15:04:57.407Z,20.44
2022-07-25T15:07:29.269Z,20.41
2022-07-25T15:10:01.229Z,20.37
2022-07-25T15:12:33.048Z,20.36
2022-07-25T15:15:05.429Z,20.26
2022-07-25T15:17:37.074Z,20.38
2022-07-25T15:20:14.512Z,20.37
2022-07-25T15:22:46.263Z,20.62
2022-07-25T15:25:45.369Z,20.55
2022-07-25T15:28:09.795Z,20.54
2022-07-25T15:30:42.061Z,20.61
2022-07-25T15:33:13.723Z,20.83
2022-07-25T15:35:46.750Z,20.70
2022-07-25T15:38:19.359Z,20.65
2022-07-25T15:40:51.242Z,20.47
2022-07-25T15:43:23.094Z,20.88
2022-07-25T15:45:55.209Z,21.03
2022-07-25T15:48:28.934Z,20.81
2022-07-25T15:51:00.690Z,20.90
2022-07-25T15:53:32.312Z,21.23
2022-07-25T15:56:04.588Z,21.15
2022-07-25T15:58:36.247Z,21.01
2022-07-25T16:01:08.090Z,20.87
2022-07-25T16:03:39.948Z,20.94
2022-07-25T16:06:16.881Z,21.14
2022-07-25T16:08:51.134Z,21.43
2022-07-25T16:11:22.900Z,21.44
2022-07-25T16:13:54.975Z,21.93
2022-07-25T16:16:26.842Z,21.87
2022-07-25T16:18:58.665Z,21.89
2022-07-25T16:21:30.548Z,22.12
2022-07-25T16:24:02.278Z,21.94
2022-07-25T16:26:34.917Z,22.39
2022-07-25T16:29:07.745Z,22.17
2022-07-25T16:31:39.627Z,22.05
2022-07-25T16:34:11.389Z,22.05
2022-07-25T16:36:43.104Z,22.18
2022-07-25T16:39:14.964Z,22.10
2022-07-25T16:41:47.147Z,22.35
2022-07-25T16:44:19.273Z,22.21
2022-07-25T16:46:51.076Z,22.48
2022-07-25T16:49:23.201Z,22.49
2022-07-25T16:51:55.200Z,22.32
2022-07-25T16:54:27.109Z,22.44
2022-07-25T16:56:59.891Z,22.30
2022-07-25T16:59:31.753Z,22.43
2022-07-25T17:02:03.962Z,22.56
2022-07-25T17:04:35.983Z,22.76
2022-07-25T17:07:07.911Z,22.97
2022-07-25T17:09:40.608Z,22.89
2022-07-25T17:12:12.849Z,22.91
2022-07-25T17:14:44.656Z,22.92
2022-07-25T17:17:16.385Z,22.68
2022-07-25T17:19:48.088Z,22.84
2022-07-25T17:22:20.364Z,22.87
2022-07-25T17:24:52.293Z,22.71
2022-07-25T17:27:23.923Z,22.99
2022-07-25T17:29:55.565Z,22.98
2022-07-25T17:32:29.938Z,23.09
2022-07-25T17:35:02.064Z,23.29
2022-07-25T17:37:34.053Z,23.28
2022-07-25T17:40:08.578Z,23.43
2022-07-25T17:42:44.926Z,23.36
2022-07-25T17:45:17.885Z,23.36
2022-07-25T17:47:49.556Z,23.30
2022-07-25T17:50:28.572Z,23.53
2022-07-25T17:53:01.550Z,23.67
2022-07-25T17:55:36.836Z,24.04
2022-07-25T17:58:11.219Z,24.22
2022-07-25T18:00:42.953Z,24.34
2022-07-25T18:03:14.621Z,24.75
2022-07-25T18:05:47.167Z,24.83
2022-07-25T18:08:18.841Z,24.90
2022-07-25T18:10:50.602Z,25.17
2022-07-25T18:13:22.261Z,25.42
2022-07-25T18:15:53.992Z,25.58
2022-07-25T18:18:25.935Z,25.72
2022-07-25T18:20:57.628Z,25.85
2022-07-25T18:23:30.737Z,25.90
2022-07-25T18:26:02.431Z,26.02
2022-07-25T18:28:34.012Z,26.36
2022-07-25T18:31:06.076Z,26.45
2022-07-25T18:33:38.007Z,26.46
2022-07-25T18:36:10.269Z,27.12
2022-07-25T18:38:42.029Z,26.93
2022-07-25T18:41:30.427Z,26.91
2022-07-25T18:44:02.697Z,27.40
2022-07-25T18:46:34.575Z,27.42
2022-07-25T18:49:07.338Z,27.55
2022-07-25T18:51:39.661Z,27.71
2022-07-25T18:54:11.437Z,27.91
2022-07-25T18:56:43.796Z,27.99
2022-07-25T18:59:16.233Z,28.17
2022-07-25T19:01:48.119Z,28.34
2022-07-25T19:04:20.819Z,28.42
2022-07-25T19:06:52.631Z,28.59
2022-07-25T19:09:25.959Z,28.65
2022-07-25T19:11:57.969Z,28.92
2022-07-25T19:14:30.820Z,29.15
2022-07-25T19:17:04.905Z,29.24
2022-07-25T19:19:36.586Z,29.43
2022-07-25T19:22:08.276Z,29.47
2022-07-25T19:24:39.941Z,29.42
2022-07-25T19:27:12.087Z,29.72
2022-07-25T19:29:45.431Z,30.31
2022-07-25T19:32:18.056Z,30.18
2022-07-25T19:34:50.040Z,30.00
2022-07-25T19:37:21.705Z,30.14
2022-07-25T19:39:53.350Z,30.33
2022-07-25T19:42:25.370Z,30.33
2022-07-25T19:44:57.337Z,30.40
2022-07-25T19:47:29.653Z,30.54
2022-07-25T19:50:01.291Z,30.54
2022-07-25T19:52:33.069Z,30.65
2022-07-25T19:55:05.108Z,30.82
2022-07-25T19:57:37.005Z,30.74
2022-07-25T20:00:13.210Z,30.80
2022-07-25T20:02:44.955Z,30.83
2022-07-25T20:05:16.564Z,30.98
2022-07-25T20:07:48.289Z,31.10
2022-07-25T20:10:20.017Z,31.32
2022-07-25T20:12:51.738Z,31.27
2022-07-25T20:15:23.537Z,31.42
2022-07-25T20:17:56.776Z,31.41
2022-07-25T20:20:28.644Z,31.54
2022-07-25T20:23:00.401Z,31.44
2022-07-25T20:25:32.140Z,31.55
2022-07-25T20:28:03.873Z,31.48
2022-07-25T20:30:35.862Z,31.80
2022-07-25T20:33:08.855Z,32.54
2022-07-25T20:35:40.917Z,33.16
2022-07-25T20:38:12.607Z,33.66
2022-07-25T20:40:49.542Z,33.74
2022-07-25T20:43:22.119Z,34.73
2022-07-25T20:45:54.149Z,34.80
2022-07-25T20:48:25.913Z,34.22
2022-07-25T20:50:57.626Z,35.23
2022-07-25T20:53:29.401Z,35.32
2022-07-25T20:56:02.612Z,35.79
2022-07-25T20:58:34.376Z,35.98
2022-07-25T21:01:06.159Z,36.37
2022-07-25T21:03:38.563Z,37.13
2022-07-25T21:06:10.352Z,38.45
2022-07-25T21:08:42.654Z,38.36
2022-07-25T21:11:14.322Z,38.96
2022-07-25T21:13:45.960Z,38.60
2022-07-25T21:16:17.849Z,38.96
2022-07-25T21:18:49.465Z,38.73
2022-07-25T21:21:21.024Z,39.15
2022-07-25T21:23:52.966Z,38.67
2022-07-25T21:26:24.852Z,39.32
2022-07-25T21:28:56.500Z,39.90
2022-07-25T21:31:28.154Z,39.77
2022-07-25T21:33:59.873Z,40.30
2022-07-25T21:36:31.905Z,40.17
2022-07-25T21:39:03.580Z,40.29
2022-07-25T21:41:35.303Z,40.66
2022-07-25T21:44:07.283Z,40.48
2022-07-25T21:46:39.123Z,40.62
2022-07-25T21:49:40.782Z,41.18
2022-07-25T21:52:14.364Z,41.39
2022-07-25T21:54:46.434Z,41.49
2022-07-25T21:57:18.384Z,41.44
2022-07-25T21:59:50.291Z,41.35
2022-07-25T22:02:22.286Z,41.88
2022-07-25T22:04:54.152Z,42.80
2022-07-25T22:07:26.378Z,42.37
2022-07-25T22:09:58.351Z,42.76
2022-07-25T22:12:30.041Z,43.92
2022-07-25T22:15:02.049Z,45.07
2022-07-25T22:17:48.642Z,44.72
2022-07-25T22:20:22.372Z,45.26
2022-07-25T22:22:54.353Z,46.09
2022-07-25T22:25:26.192Z,46.17
2022-07-25T22:27:58.137Z,46.24
2022-07-25T22:30:29.973Z,47.40
2022-07-25T22:33:01.804Z,47.42
2022-07-25T22:35:33.553Z,48.22
2022-07-25T22:38:05.170Z,47.93
2022-07-25T22:40:37.089Z,47.46
2022-07-25T22:43:08.792Z,47.35
2022-07-25T22:45:43.019Z,47.22
2022-07-25T22:48:15.163Z,47.58
2022-07-25T22:50:46.924Z,47.61
2022-07-25T22:53:20.345Z,47.34
2022-07-25T22:55:52.244Z,47.61
2022-07-25T22:58:23.983Z,47.38
2022-07-25T23:00:55.889Z,47.50
2022-07-25T23:03:27.629Z,47.82
2022-07-25T23:06:05.198Z,47.86
2022-07-25T23:08:36.923Z,48.14
2022-07-25T23:11:09.337Z,48.60
2022-07-25T23:13:41.253Z,48.86
2022-07-25T23:16:13.213Z,48.70
2022-07-25T23:18:45.043Z,49.28
2022-07-25T23:21:16.834Z,49.33
2022-07-25T23:23:48.771Z,49.48
2022-07-25T23:26:20.635Z,49.39
2022-07-25T23:28:52.671Z,49.33
2022-07-25T23:31:24.527Z,49.37
2022-07-25T23:33:56.418Z,49.45
2022-07-25T23:36:28.237Z,49.71
2022-07-25T23:38:59.815Z,49.75
2022-07-25T23:41:31.490Z,49.87
2022-07-25T23:44:03.414Z,49.87
2022-07-25T23:46:35.809Z,50.08
2022-07-25T23:49:09.958Z,50.42
2022-07-25T23:51:42.064Z,50.66
2022-07-25T23:54:14.143Z,50.75
2022-07-25T23:56:45.934Z,50.98
2022-07-25T23:59:17.573Z,51.29
